Time;durP1;ratioP1;P1;durP2;ratioP2;P2;SDS_P1;SDS_P2;PMS_P1;PMS_P2;Temp;Humidity;BMP_temperature;BMP_pressure;BME280_temperature;BME280_humidity;BME280_pressure;Samples;Min_cycle;Max_cycle;Signal;HPM_P1;HPM_P2
2024/05/05 00:00:46;;;;;;;5.70;4.43;;;15.60;98.00;20.30;99991.00;;;;5455085;26;20036;-50
2024/05/05 00:03:12;;;;;;;7.53;4.50;;;15.50;98.40;20.10;99993.00;;;;5456793;26;20067;-49
2024/05/05 00:05:38;;;;;;;5.70;4.57;;;15.50;99.60;20.20;99983.00;;;;5458227;26;19999;-49
2024/05/05 00:08:05;;;;;;;7.90;4.07;;;15.40;99.60;20.00;99988.00;;;;5457743;26;19995;-49
2024/05/05 00:10:31;;;;;;;8.38;4.60;;;15.40;99.90;20.00;99987.00;;;;5458924;26;20370;-48
2024/05/05 00:12:57;;;;;;;6.70;4.25;;;15.30;99.90;19.80;99979.00;;;;5457910;26;20413;-49
2024/05/05 00:15:24;;;;;;;9.20;4.90;;;15.30;99.90;20.00;99987.00;;;;5457110;26;20389;-48
2024/05/05 00:17:50;;;;;;;8.07;4.85;;;15.20;99.90;19.90;99986.00;;;;5456293;26;20493;-48
2024/05/05 00:20:16;;;;;;;7.43;4.10;;;15.20;99.90;20.00;99983.00;;;;5455807;26;20428;-48
2024/05/05 00:22:42;;;;;;;6.53;4.47;;;15.10;99.90;19.90;99983.00;;;;5457807;26;20122;-49
2024/05/05 00:25:08;;;;;;;14.13;5.20;;;15.10;99.90;19.80;99993.00;;;;5457662;26;19999;-48
2024/05/05 00:27:34;;;;;;;5.03;4.53;;;15.10;99.90;19.90;99987.00;;;;5457786;26;19995;-49
2024/05/05 00:30:01;;;;;;;5.40;4.60;;;15.00;99.90;19.70;99989.00;;;;5457934;26;20002;-50
2024/05/05 00:32:27;;;;;;;7.63;4.28;;;15.00;99.90;19.80;99987.00;;;;5456884;26;19993;-55
2024/05/05 00:34:53;;;;;;;8.18;4.10;;;15.00;99.90;19.80;99987.00;;;;5457069;26;19996;-47
2024/05/05 00:37:19;;;;;;;5.80;4.40;;;15.10;99.90;19.60;99995.00;;;;5457325;26;20008;-47
2024/05/05 00:39:45;;;;;;;8.57;4.25;;;15.10;99.90;19.70;99989.00;;;;5456098;26;19999;-54
2024/05/05 00:42:13;;;;;;;6.57;4.75;;;15.00;99.90;19.80;99980.00;;;;5457167;26;20023;-48
2024/05/05 00:44:39;;;;;;;7.00;4.30;;;15.00;99.90;19.90;99985.00;;;;5457064;26;20007;-51
2024/05/05 00:47:06;;;;;;;5.13;3.92;;;15.10;99.90;19.90;99983.00;;;;5457746;26;20022;-49
2024/05/05 00:49:33;;;;;;;6.63;4.32;;;15.20;99.90;20.10;99983.00;;;;5456241;26;20055;-48
2024/05/05 00:51:59;;;;;;;9.55;3.90;;;15.30;99.90;20.10;99979.00;;;;5457452;26;19994;-55
2024/05/05 00:54:26;;;;;;;6.03;3.60;;;15.40;99.90;20.00;99976.00;;;;5458099;26;20063;-48
2024/05/05 00:56:52;;;;;;;5.50;3.78;;;15.50;99.80;20.10;99980.00;;;;5457012;26;19991;-50
2024/05/05 00:59:21;;;;;;;5.85;4.20;;;15.50;99.90;20.20;99978.00;;;;5457368;26;19990;-48
2024/05/05 01:01:47;;;;;;;6.65;4.00;;;15.50;99.90;20.10;99968.00;;;;5457314;26;20002;-48
2024/05/05 01:04:13;;;;;;;10.77;4.18;;;15.60;99.10;19.80;99968.00;;;;5457342;26;20009;-47
2024/05/05 01:06:39;;;;;;;10.20;3.75;;;15.70;98.60;19.90;99975.00;;;;5457688;26;19995;-48
2024/05/05 01:09:06;;;;;;;7.57;3.90;;;15.70;98.20;20.20;99968.00;;;;5456862;26;20447;-48
2024/05/05 01:11:32;;;;;;;5.88;4.10;;;15.70;98.10;20.10;99971.00;;;;5457678;26;19994;-48
2024/05/05 01:13:58;;;;;;;5.70;4.05;;;15.80;98.00;20.30;99974.00;;;;5455611;26;20065;-47
2024/05/05 01:16:24;;;;;;;7.95;3.45;;;15.80;97.90;20.10;99976.00;;;;5457407;26;20006;-48
2024/05/05 01:18:51;;;;;;;9.00;3.95;;;15.80;97.60;20.30;99971.00;;;;5457862;26;20003;-48
2024/05/05 01:21:17;;;;;;;5.95;4.00;;;15.80;97.70;20.10;99967.00;;;;5458514;26;20321;-47
2024/05/05 01:23:43;;;;;;;8.10;3.85;;;15.90;97.30;20.20;99968.00;;;;5457071;26;19991;-47
2024/05/05 01:26:08;;;;;;;10.40;3.70;;;15.80;97.20;20.20;99968.00;;;;5456560;26;20008;-47
2024/05/05 01:28:35;;;;;;;5.00;3.78;;;15.80;97.30;20.30;99968.00;;;;5456747;26;19995;-50
2024/05/05 01:31:01;;;;;;;5.78;3.42;;;15.80;97.30;20.50;99969.00;;;;5455782;26;19994;-48
2024/05/05 01:33:27;;;;;;;4.93;3.60;;;15.80;97.60;20.30;99962.00;;;;5456063;26;20002;-49
2024/05/05 01:35:54;;;;;;;7.85;3.90;;;15.70;98.20;20.30;99962.00;;;;5456432;26;19991;-56
2024/05/05 01:38:19;;;;;;;8.80;3.95;;;15.60;97.70;20.20;99963.00;;;;5456475;26;19994;-49
2024/05/05 01:40:45;;;;;;;6.95;3.95;;;15.60;97.80;20.20;99966.00;;;;5457314;26;20006;-47
2024/05/05 01:43:11;;;;;;;6.53;3.67;;;15.60;98.00;20.20;99966.00;;;;5456982;26;19991;-49
2024/05/05 01:45:37;;;;;;;11.50;3.45;;;15.50;98.50;20.20;99962.00;;;;5456472;26;19998;-50
2024/05/05 01:48:04;;;;;;;15.43;4.07;;;15.40;98.60;20.00;99958.00;;;;5456268;26;20006;-49
2024/05/05 01:50:30;;;;;;;10.18;4.10;;;15.30;99.90;20.00;99963.00;;;;5455765;26;20401;-49
2024/05/05 01:52:56;;;;;;;4.88;3.70;;;15.20;99.90;20.00;99961.00;;;;5455988;26;19995;-48
2024/05/05 01:55:22;;;;;;;11.85;3.90;;;15.10;99.90;19.70;99968.00;;;;5456335;26;20107;-56
2024/05/05 01:57:48;;;;;;;5.15;3.60;;;15.00;99.90;19.70;99971.00;;;;5455758;26;20010;-50
2024/05/05 02:00:14;;;;;;;4.93;3.90;;;15.00;99.90;19.70;99969.00;;;;5455912;26;19991;-48
2024/05/05 02:02:41;;;;;;;5.22;3.95;;;14.90;99.90;19.60;99959.00;;;;5456726;26;20315;-48
2024/05/05 02:05:07;;;;;;;6.43;4.00;;;14.80;99.90;19.60;99960.00;;;;5456779;26;19987;-47
2024/05/05 02:07:33;;;;;;;6.07;4.05;;;14.80;99.90;19.60;99954.00;;;;5455919;26;20001;-48
2024/05/05 02:09:59;;;;;;;11.05;4.20;;;14.70;99.90;19.50;99957.00;;;;5455540;26;20416;-48
2024/05/05 02:12:26;;;;;;;7.32;4.07;;;14.70;99.90;19.30;99957.00;;;;5456242;26;20002;-48
2024/05/05 02:14:52;;;;;;;8.32;3.88;;;14.60;99.90;19.30;99958.00;;;;5455732;26;19994;-49
2024/05/05 02:17:18;;;;;;;7.38;4.10;;;14.50;99.90;19.30;99954.00;;;;5456272;26;20058;-48
2024/05/05 02:19:44;;;;;;;7.05;3.55;;;14.40;99.90;19.00;99955.00;;;;5455853;26;20027;-49
2024/05/05 02:22:10;;;;;;;8.93;3.85;;;14.40;99.90;19.00;99953.00;;;;5455868;26;19995;-48
2024/05/05 02:24:37;;;;;;;7.38;4.25;;;14.30;99.90;18.90;99957.00;;;;5454141;26;19995;-49
2024/05/05 02:27:03;;;;;;;6.35;3.88;;;14.20;99.90;19.10;99954.00;;;;5455717;26;20036;-49
2024/05/05 02:29:29;;;;;;;4.88;3.78;;;14.20;99.90;19.10;99957.00;;;;5455876;26;19995;-59
2024/05/05 02:31:55;;;;;;;8.73;4.30;;;14.20;99.90;19.10;99955.00;;;;5455830;26;19994;-47
2024/05/05 02:34:21;;;;;;;5.03;4.00;;;14.30;99.90;19.10;99952.00;;;;5455922;26;19994;-50
2024/05/05 02:36:47;;;;;;;7.22;3.85;;;14.30;99.90;18.90;99946.00;;;;5456462;26;20044;-48
2024/05/05 02:39:13;;;;;;;7.30;3.70;;;14.30;99.90;19.00;99955.00;;;;5454236;26;19995;-50
2024/05/05 02:41:40;;;;;;;6.28;3.92;;;14.30;99.90;19.10;99946.00;;;;5456594;26;20013;-50
2024/05/05 02:44:06;;;;;;;8.88;3.60;;;14.30;99.90;19.10;99945.00;;;;5455756;26;20430;-52
2024/05/05 02:46:32;;;;;;;4.43;3.42;;;14.30;99.90;19.00;99951.00;;;;5455510;26;20064;-47
2024/05/05 02:48:58;;;;;;;4.85;3.70;;;14.30;99.90;19.20;99940.00;;;;5454900;26;20063;-51
2024/05/05 02:51:24;;;;;;;6.80;4.05;;;14.40;99.90;19.20;99944.00;;;;5456257;26;20399;-49
2024/05/05 02:53:50;;;;;;;9.10;3.85;;;14.50;99.90;19.30;99947.00;;;;5456120;26;20405;-49
2024/05/05 02:56:19;;;;;;;7.45;3.40;;;14.60;99.90;19.30;99944.00;;;;5457094;26;19990;-48
2024/05/05 02:58:46;;;;;;;6.60;3.78;;;14.60;99.90;19.40;99949.00;;;;5454386;26;19999;-49
2024/05/05 03:01:16;;;;;;;7.22;3.85;;;14.60;99.90;19.20;99942.00;;;;5455770;26;20009;-56
2024/05/05 03:03:45;;;;;;;9.40;3.80;;;14.50;99.90;19.20;99944.00;;;;5454545;26;20157;-55
2024/05/05 03:06:22;;;;;;;6.03;3.70;;;14.50;99.90;19.10;99937.00;;;;5454960;26;19999;-48
2024/05/05 03:08:48;;;;;;;7.88;4.00;;;14.60;99.90;19.30;99941.00;;;;5455075;26;19986;-48
2024/05/05 03:11:15;;;;;;;6.35;3.47;;;14.60;99.90;19.30;99948.00;;;;5455360;26;19995;-48
2024/05/05 03:13:41;;;;;;;6.15;3.92;;;14.60;99.90;19.30;99937.00;;;;5456215;26;19998;-47
2024/05/05 03:16:11;;;;;;;13.05;3.92;;;14.60;99.90;19.30;99938.00;;;;5454784;26;20037;-49
2024/05/05 03:18:38;;;;;;;10.50;3.53;;;14.60;99.90;19.20;99941.00;;;;5453788;26;20010;-49
2024/05/05 03:21:04;;;;;;;6.60;4.05;;;14.70;99.90;19.40;99946.00;;;;5455157;26;19995;-48
2024/05/05 03:23:31;;;;;;;5.13;3.53;;;14.80;99.90;19.40;99951.00;;;;5455663;26;20027;-48
2024/05/05 03:25:59;;;;;;;9.23;3.80;;;14.80;99.90;19.50;99949.00;;;;5454020;26;20091;-47
2024/05/05 03:28:25;;;;;;;6.43;3.65;;;14.80;99.90;19.20;99946.00;;;;5454134;26;20059;-48
2024/05/05 03:30:52;;;;;;;8.52;3.92;;;14.80;99.80;19.40;99953.00;;;;5454445;26;20067;-48
2024/05/05 03:33:18;;;;;;;7.20;3.80;;;14.80;99.90;19.30;99943.00;;;;5453770;26;19994;-48
2024/05/05 03:35:44;;;;;;;6.78;3.72;;;14.70;99.90;19.40;99953.00;;;;5454003;26;20096;-48
2024/05/05 03:38:12;;;;;;;5.78;3.80;;;14.70;99.90;19.40;99950.00;;;;5458017;26;19995;-48
2024/05/05 03:40:38;;;;;;;7.13;3.95;;;14.70;99.90;19.20;99952.00;;;;5457486;26;20010;-48
2024/05/05 03:43:04;;;;;;;6.47;4.22;;;14.60;99.90;19.40;99952.00;;;;5458303;26;20412;-49
2024/05/05 03:45:30;;;;;;;4.78;3.80;;;14.60;99.90;19.20;99949.00;;;;5458843;26;20104;-47
2024/05/05 03:47:57;;;;;;;5.28;3.90;;;14.50;99.90;19.00;99965.00;;;;5457225;26;20305;-48
2024/05/05 03:50:23;;;;;;;6.45;4.43;;;14.40;99.90;19.10;99956.00;;;;5457412;26;19994;-51
2024/05/05 03:52:49;;;;;;;4.13;3.63;;;14.30;99.90;19.20;99964.00;;;;5458597;26;20409;-47
2024/05/05 03:55:15;;;;;;;7.30;4.22;;;14.30;99.90;19.20;99962.00;;;;5458238;26;20392;-49
2024/05/05 03:57:41;;;;;;;6.20;4.25;;;14.30;99.90;19.30;99956.00;;;;5458403;26;19991;-48
2024/05/05 04:00:08;;;;;;;6.72;3.90;;;14.30;99.90;19.20;99962.00;;;;5446010;26;20014;-49
2024/05/05 04:02:34;;;;;;;6.82;4.50;;;14.30;99.90;19.30;99955.00;;;;5421751;26;20065;-47
2024/05/05 04:05:00;;;;;;;7.38;4.35;;;14.20;99.90;19.20;99959.00;;;;5450653;26;19999;-52
2024/05/05 04:07:30;;;;;;;8.57;4.10;;;14.30;99.90;19.30;99962.00;;;;5421196;26;20137;-49
2024/05/05 04:09:57;;;;;;;7.43;3.83;;;14.20;99.90;19.30;99961.00;;;;5420612;26;20090;-51
2024/05/05 04:12:23;;;;;;;7.70;4.00;;;14.30;99.90;19.30;99960.00;;;;5421782;26;19992;-49
2024/05/05 04:14:49;;;;;;;9.23;3.90;;;14.30;99.90;19.30;99968.00;;;;5450540;26;20001;-48
2024/05/05 04:17:16;;;;;;;7.97;4.32;;;14.30;99.90;19.30;99954.00;;;;5421102;26;19992;-49
2024/05/05 04:19:42;;;;;;;8.43;3.95;;;14.40;99.90;19.50;99962.00;;;;5419473;26;20000;-50
2024/05/05 04:22:08;;;;;;;4.40;3.60;;;14.40;99.90;19.70;99965.00;;;;5421156;26;20003;-48
2024/05/05 04:24:34;;;;;;;8.90;4.35;;;14.50;99.90;19.80;99959.00;;;;5419693;26;19998;-48
2024/05/05 04:27:00;;;;;;;8.25;4.47;;;14.50;99.90;19.80;99958.00;;;;5420322;26;19995;-47
2024/05/05 04:29:26;;;;;;;9.20;4.35;;;14.60;99.90;19.90;99953.00;;;;5421641;26;19991;-47
2024/05/05 04:31:52;;;;;;;8.23;4.07;;;14.70;99.90;19.90;99953.00;;;;5420895;26;19996;-48
2024/05/05 04:34:18;;;;;;;7.85;4.13;;;14.80;99.90;20.00;99952.00;;;;5421600;26;19999;-49
2024/05/05 04:36:44;;;;;;;10.40;4.35;;;14.80;99.90;20.10;99958.00;;;;5420944;26;19992;-60
2024/05/05 04:39:11;;;;;;;7.85;4.15;;;14.80;99.90;20.00;99955.00;;;;5420760;26;19991;-49
2024/05/05 04:41:37;;;;;;;9.80;4.18;;;14.90;99.90;20.10;99961.00;;;;5421444;26;20006;-48
2024/05/05 04:44:03;;;;;;;6.18;3.85;;;15.00;99.90;20.30;99951.00;;;;5422706;26;20329;-49
2024/05/05 04:46:30;;;;;;;8.25;4.22;;;15.10;99.90;20.50;99957.00;;;;5422003;26;19991;-49
2024/05/05 04:48:55;;;;;;;6.72;4.05;;;15.30;99.90;20.60;99951.00;;;;5419609;26;20023;-48
2024/05/05 04:51:21;;;;;;;6.65;3.70;;;15.40;99.90;20.70;99962.00;;;;5419669;26;19999;-50
2024/05/05 04:53:47;;;;;;;8.90;4.57;;;15.50;99.90;20.70;99957.00;;;;5419404;26;20003;-48
2024/05/05 04:56:13;;;;;;;8.93;4.05;;;15.60;99.90;20.80;99954.00;;;;5420412;26;19991;-48
2024/05/05 04:58:40;;;;;;;7.05;4.25;;;15.70;99.90;20.90;99953.00;;;;5420890;26;20006;-48
2024/05/05 05:01:06;;;;;;;8.98;4.10;;;15.80;99.90;21.00;99958.00;;;;5420789;26;20011;-48
2024/05/05 05:03:32;;;;;;;6.93;3.90;;;16.00;99.90;21.10;99957.00;;;;5420721;26;20003;-49
2024/05/05 05:05:58;;;;;;;8.98;4.07;;;16.10;99.90;21.10;99956.00;;;;5420316;26;20000;-47
2024/05/05 05:08:25;;;;;;;9.68;3.75;;;16.20;99.90;21.30;99961.00;;;;5420486;26;20002;-48
2024/05/05 05:10:51;;;;;;;8.98;3.90;;;16.30;99.90;21.20;99958.00;;;;5421689;26;19992;-49
2024/05/05 05:13:19;;;;;;;5.00;3.80;;;16.40;99.90;21.50;99956.00;;;;5449805;26;19995;-48
2024/05/05 05:15:45;;;;;;;7.57;3.65;;;16.40;99.90;21.70;99958.00;;;;5421269;26;19995;-49
2024/05/05 05:18:11;;;;;;;17.70;3.30;;;16.50;99.90;21.70;99957.00;;;;5420614;26;20122;-49
2024/05/05 05:20:37;;;;;;;7.85;4.88;;;16.60;99.90;21.40;99959.00;;;;5420661;26;19992;-47
2024/05/05 05:23:04;;;;;;;6.25;3.30;;;16.70;98.50;21.80;99944.00;;;;5420902;26;19999;-49
2024/05/05 05:25:30;;;;;;;5.55;3.40;;;16.80;98.40;21.90;99944.00;;;;5421531;26;20003;-47
2024/05/05 05:27:56;;;;;;;7.47;3.60;;;16.90;97.60;22.20;99957.00;;;;5419901;26;20014;-48
2024/05/05 05:30:22;;;;;;;4.07;3.15;;;17.10;97.60;22.20;99952.00;;;;5421184;26;20352;-52
2024/05/05 05:32:48;;;;;;;5.72;3.15;;;17.20;97.30;22.20;99950.00;;;;5420166;26;20391;-49
2024/05/05 05:35:14;;;;;;;4.95;3.60;;;17.30;96.50;22.20;99946.00;;;;5419384;26;19995;-49
2024/05/05 05:37:41;;;;;;;6.07;3.33;;;17.40;96.00;22.40;99945.00;;;;5420006;26;20329;-49
2024/05/05 05:40:07;;;;;;;6.20;3.45;;;17.50;95.40;22.60;99943.00;;;;5420089;26;19996;-53
2024/05/05 05:42:34;;;;;;;4.22;2.90;;;17.70;95.50;22.00;99950.00;;;;5419705;26;19999;-48
2024/05/05 05:45:01;;;;;;;5.20;3.47;;;17.80;94.00;22.30;99937.00;;;;5421720;26;19995;-50
2024/05/05 05:47:28;;;;;;;8.43;3.17;;;17.90;94.00;22.10;99939.00;;;;5418996;26;20023;-48
2024/05/05 05:49:54;;;;;;;8.93;4.03;;;18.00;93.80;22.40;99938.00;;;;5419563;26;20007;-48
2024/05/05 05:52:20;;;;;;;11.88;3.33;;;18.10;93.70;22.80;99948.00;;;;5420148;26;20002;-53
2024/05/05 05:54:46;;;;;;;6.30;3.40;;;18.10;94.20;23.20;99945.00;;;;5420478;26;20007;-48
2024/05/05 05:57:12;;;;;;;5.60;3.60;;;18.30;93.80;23.40;99938.00;;;;5420661;26;19996;-54
2024/05/05 05:59:38;;;;;;;8.43;3.22;;;18.40;93.50;23.10;99943.00;;;;5420068;26;20004;-48
2024/05/05 06:02:04;;;;;;;9.00;3.58;;;18.50;93.40;23.40;99931.00;;;;5419858;26;20032;-49
2024/05/05 06:04:31;;;;;;;4.00;2.97;;;18.60;93.20;23.80;99933.00;;;;5420378;26;19999;-49
2024/05/05 06:06:57;;;;;;;3.88;3.10;;;18.80;92.50;23.90;99940.00;;;;5420800;26;20003;-49
2024/05/05 06:09:23;;;;;;;8.27;3.30;;;18.90;92.70;24.10;99940.00;;;;5418666;26;20413;-49
2024/05/05 06:11:49;;;;;;;6.03;2.92;;;19.00;92.00;24.10;99943.00;;;;5420127;26;19995;-49
2024/05/05 06:14:16;;;;;;;7.32;3.42;;;19.30;91.50;24.10;99934.00;;;;5420418;26;19991;-48
2024/05/05 06:16:42;;;;;;;6.75;3.25;;;19.40;90.50;24.40;99933.00;;;;5420460;26;20002;-51
2024/05/05 06:19:08;;;;;;;6.15;3.08;;;19.60;90.70;24.10;99937.00;;;;5419241;26;20070;-49
2024/05/05 06:21:34;;;;;;;4.60;2.78;;;19.70;90.10;24.20;99932.00;;;;5419619;26;19995;-47
2024/05/05 06:24:00;;;;;;;5.65;3.10;;;19.80;90.40;24.30;99931.00;;;;5419371;26;20060;-48
2024/05/05 06:26:26;;;;;;;3.40;2.67;;;19.90;88.40;24.10;99937.00;;;;5419572;26;20321;-51
2024/05/05 06:28:52;;;;;;;6.13;3.15;;;20.00;88.90;24.60;99933.00;;;;5418990;26;20448;-49
2024/05/05 06:31:19;;;;;;;4.65;3.03;;;20.10;88.30;25.30;99934.00;;;;5446896;26;20318;-50
2024/05/05 06:33:45;;;;;;;9.38;3.50;;;20.30;87.30;25.10;99926.00;;;;5419363;26;20080;-48
2024/05/05 06:36:11;;;;;;;6.90;3.40;;;20.40;88.10;25.30;99929.00;;;;5418822;26;19987;-52
2024/05/05 06:38:38;;;;;;;8.02;3.15;;;20.50;87.20;25.20;99928.00;;;;5419360;26;20003;-50
2024/05/05 06:41:05;;;;;;;4.93;2.83;;;20.70;85.90;25.60;99928.00;;;;5419011;26;20078;-48
2024/05/05 06:43:31;;;;;;;6.25;3.05;;;20.70;86.30;25.70;99925.00;;;;5419805;26;20000;-49
2024/05/05 06:45:57;;;;;;;11.38;3.42;;;21.00;85.80;25.90;99923.00;;;;5419666;26;19992;-48
2024/05/05 06:48:23;;;;;;;5.30;3.15;;;21.10;85.20;26.00;99919.00;;;;5419985;26;19995;-48
2024/05/05 06:50:50;;;;;;;6.78;2.60;;;21.30;83.70;26.40;99918.00;;;;5419558;26;20002;-49
2024/05/05 06:53:16;;;;;;;3.60;2.65;;;21.40;84.70;26.70;99917.00;;;;5418897;26;20000;-47
2024/05/05 06:55:45;;;;;;;7.07;2.88;;;21.60;84.30;26.30;99919.00;;;;5419143;26;20082;-48
2024/05/05 06:58:11;;;;;;;10.18;3.00;;;21.60;81.60;26.20;99922.00;;;;5419081;26;20000;-49
2024/05/05 07:00:37;;;;;;;6.75;3.15;;;21.60;81.20;26.30;99919.00;;;;5418378;26;19991;-52
2024/05/05 07:03:05;;;;;;;8.15;2.60;;;21.70;82.40;26.50;99926.00;;;;5418659;26;19995;-49
2024/05/05 07:05:31;;;;;;;4.70;3.15;;;21.90;82.40;26.50;99917.00;;;;5447602;26;20322;-49
2024/05/05 07:07:57;;;;;;;7.45;3.38;;;22.00;80.40;26.40;99923.00;;;;5418886;26;19992;-49
2024/05/05 07:10:23;;;;;;;8.27;2.97;;;22.10;80.30;26.70;99919.00;;;;5417385;26;19991;-49
2024/05/05 07:12:49;;;;;;;4.80;2.75;;;22.30;79.50;27.30;99915.00;;;;5422738;26;20065;-51
2024/05/05 07:15:15;;;;;;;5.05;2.80;;;22.50;79.50;27.00;99914.00;;;;5420992;26;19999;-48
2024/05/05 07:17:42;;;;;;;10.73;3.10;;;22.60;78.00;26.70;99918.00;;;;5422976;26;20368;-48
2024/05/05 07:20:08;;;;;;;9.57;2.92;;;22.60;76.70;26.90;99913.00;;;;5423318;26;20324;-55
2024/05/05 07:22:34;;;;;;;6.75;2.60;;;22.60;78.00;27.80;99910.00;;;;5423718;26;20003;-53
2024/05/05 07:25:00;;;;;;;6.72;2.80;;;22.90;76.50;27.90;99912.00;;;;5422587;26;20386;-48
2024/05/05 07:27:26;;;;;;;5.95;2.75;;;23.20;75.20;27.30;99902.00;;;;5423632;26;20425;-48
2024/05/05 07:29:52;;;;;;;7.18;2.33;;;23.20;72.90;27.80;99907.00;;;;5423488;26;20003;-48
2024/05/05 07:32:19;;;;;;;9.73;3.08;;;23.50;72.60;28.20;99919.00;;;;5421801;26;19995;-50
2024/05/05 07:34:45;;;;;;;9.70;4.00;;;23.60;71.70;28.30;99907.00;;;;5421438;26;19996;-50
2024/05/05 07:37:11;;;;;;;12.30;2.80;;;23.80;71.30;27.70;99908.00;;;;5422777;26;20002;-50
2024/05/05 07:39:37;;;;;;;6.95;2.92;;;23.70;71.60;28.20;99906.00;;;;5422557;26;20007;-56
2024/05/05 07:42:04;;;;;;;6.35;2.75;;;23.80;72.90;28.20;99907.00;;;;5423128;26;19987;-48
2024/05/05 07:44:30;;;;;;;7.07;2.97;;;23.90;70.50;28.90;99910.00;;;;5420628;26;20000;-51
2024/05/05 07:46:56;;;;;;;9.45;2.72;;;24.10;70.40;28.50;99908.00;;;;5421853;26;20003;-48
2024/05/05 07:49:23;;;;;;;9.85;2.45;;;24.30;70.80;29.20;99904.00;;;;5421116;26;20007;-51
2024/05/05 07:51:51;;;;;;;9.30;2.67;;;24.40;68.80;29.50;99898.00;;;;5421912;26;20019;-50
2024/05/05 07:54:17;;;;;;;8.55;2.88;;;24.80;68.30;29.00;99895.00;;;;5421916;26;20074;-48
2024/05/05 07:56:43;;;;;;;5.60;2.80;;;24.80;67.10;29.70;99898.00;;;;5422386;26;20002;-49
2024/05/05 07:59:11;;;;;;;7.90;2.45;;;25.20;67.10;29.70;99899.00;;;;5423076;26;19991;-48
2024/05/05 08:01:37;;;;;;;17.10;2.88;;;25.30;65.40;29.60;99894.00;;;;5421603;26;19999;-53
2024/05/05 08:04:04;;;;;;;8.80;2.67;;;25.30;65.40;30.20;99887.00;;;;5422138;26;20002;-48
2024/05/05 08:06:30;;;;;;;8.95;3.10;;;25.70;64.90;29.50;99895.00;;;;5422040;26;19991;-49
2024/05/05 08:08:56;;;;;;;8.27;2.65;;;25.50;65.80;30.00;99880.00;;;;5420846;26;20029;-49
2024/05/05 08:11:22;;;;;;;7.22;3.08;;;25.40;64.90;29.80;99884.00;;;;5421744;26;19992;-49
2024/05/05 08:13:48;;;;;;;9.23;2.60;;;25.70;63.70;30.10;99885.00;;;;5422922;26;20310;-48
2024/05/05 08:16:14;;;;;;;8.68;2.75;;;25.50;64.00;29.50;99886.00;;;;5422337;26;20037;-59
2024/05/05 08:18:43;;;;;;;3.38;2.25;;;25.50;61.60;29.50;99887.00;;;;5421521;26;20061;-52
2024/05/05 08:21:09;;;;;;;7.13;2.60;;;25.50;60.40;30.40;99879.00;;;;5422230;26;20069;-49
2024/05/05 08:23:38;;;;;;;12.27;3.03;;;25.80;61.30;29.80;99881.00;;;;5439372;26;20011;-49
2024/05/05 08:26:04;;;;;;;5.30;2.60;;;26.00;60.80;30.20;99889.00;;;;5458076;26;19995;-50
2024/05/05 08:28:30;;;;;;;7.63;2.58;;;26.00;60.80;30.10;99880.00;;;;5458456;26;20005;-48
2024/05/05 08:30:56;;;;;;;8.10;2.63;;;26.00;60.70;30.50;99881.00;;;;5458825;26;20016;-53
2024/05/05 08:33:22;;;;;;;11.02;2.58;;;26.40;59.90;31.30;99873.00;;;;5452717;26;20090;-51
2024/05/05 08:35:48;;;;;;;5.22;2.60;;;26.70;59.60;30.90;99877.00;;;;5454576;26;19990;-56
2024/05/05 08:38:14;;;;;;;6.43;2.63;;;26.70;59.10;30.90;99877.00;;;;5455693;26;19995;-49
2024/05/05 08:40:41;;;;;;;7.72;2.70;;;26.80;58.40;31.10;99879.00;;;;5454297;26;20067;-50
2024/05/05 08:43:07;;;;;;;7.60;2.53;;;26.70;58.10;31.40;99872.00;;;;5453950;26;20445;-49
2024/05/05 08:45:37;;;;;;;11.35;2.10;;;27.20;58.00;31.40;99870.00;;;;5457760;26;19999;-50
2024/05/05 08:48:10;;;;;;;4.65;2.60;;;27.20;57.00;31.80;99866.00;;;;5457765;26;19998;-55
2024/05/05 08:50:47;;;;;;;4.60;2.33;;;27.30;57.40;31.00;99861.00;;;;5457643;26;20014;-50
2024/05/05 08:53:15;;;;;;;11.18;2.55;;;26.90;55.90;31.20;99860.00;;;;5457269;26;20005;-50
2024/05/05 08:55:41;;;;;;;5.80;2.50;;;26.90;56.60;31.30;99858.00;;;;5457245;26;20026;-50
2024/05/05 08:58:09;;;;;;;4.57;2.60;;;27.00;56.40;31.40;99858.00;;;;5458624;26;19987;-49
2024/05/05 09:00:35;;;;;;;4.95;2.42;;;27.30;56.40;31.90;99859.00;;;;5458076;26;20118;-49
2024/05/05 09:03:02;;;;;;;9.63;2.50;;;27.50;55.30;31.20;99861.00;;;;5459036;26;19994;-49
2024/05/05 09:05:47;;;;;;;5.38;2.20;;;27.30;55.60;30.80;99857.00;;;;5458662;26;19991;-48
2024/05/05 09:08:15;;;;;;;3.97;2.25;;;27.20;55.30;31.40;99854.00;;;;5459383;26;19991;-48
2024/05/05 09:10:42;;;;;;;10.00;2.28;;;27.20;55.30;32.00;99853.00;;;;5457155;26;19995;-49
2024/05/05 09:13:09;;;;;;;4.47;2.60;;;27.60;56.10;31.60;99849.00;;;;5459083;26;20191;-50
2024/05/05 09:15:36;;;;;;;8.82;2.70;;;27.70;55.60;31.10;99852.00;;;;5458430;26;20066;-50
2024/05/05 09:18:02;;;;;;;3.13;2.25;;;27.50;55.30;32.00;99852.00;;;;5458140;26;19998;-50
2024/05/05 09:20:29;;;;;;;3.33;2.22;;;27.70;56.30;32.80;99851.00;;;;5457938;26;19999;-48
2024/05/05 09:22:56;;;;;;;6.97;2.20;;;28.40;53.20;32.80;99851.00;;;;5458204;26;20289;-49
2024/05/05 09:25:22;;;;;;;6.85;2.33;;;28.60;53.00;33.60;99847.00;;;;5457306;26;20429;-49
2024/05/05 09:27:49;;;;;;;4.32;2.22;;;29.00;52.60;33.90;99840.00;;;;5458048;26;19999;-56
2024/05/05 09:30:15;;;;;;;7.00;2.60;;;29.30;52.80;34.10;99842.00;;;;5457280;26;19991;-49
2024/05/05 09:32:43;;;;;;;10.18;2.20;;;29.50;52.50;33.30;99840.00;;;;5457118;26;19990;-49
2024/05/05 09:35:10;;;;;;;4.28;2.13;;;29.10;52.30;34.20;99829.00;;;;5456265;26;20006;-50
2024/05/05 09:37:41;;;;;;;6.43;2.13;;;29.60;51.60;35.20;99827.00;;;;5456967;26;20002;-50
2024/05/05 09:40:11;;;;;;;6.03;2.78;;;30.40;51.10;35.70;99832.00;;;;5457111;26;20006;-50
2024/05/05 09:42:37;;;;;;;7.93;2.60;;;31.10;50.80;36.10;99819.00;;;;5457383;26;20006;-48
2024/05/05 09:45:04;;;;;;;7.80;2.15;;;31.30;51.10;35.60;99826.00;;;;5456488;26;20041;-49
2024/05/05 09:47:36;;;;;;;5.32;2.13;;;31.30;49.50;33.70;99828.00;;;;5455981;26;20003;-48
2024/05/05 09:50:06;;;;;;;4.40;2.25;;;29.80;50.00;32.90;99825.00;;;;5485432;26;19991;-49
2024/05/05 09:52:49;;;;;;;8.98;2.38;;;29.20;49.90;33.10;99826.00;;;;5456782;26;19987;-49
2024/05/05 09:55:19;;;;;;;5.28;2.25;;;29.20;50.10;33.50;99813.00;;;;5457607;26;19994;-51
2024/05/05 09:57:54;;;;;;;6.20;2.25;;;29.10;49.20;33.50;99810.00;;;;5457974;26;19991;-55
2024/05/05 10:00:21;;;;;;;3.28;1.95;;;29.10;49.70;33.90;99824.00;;;;5458065;26;20417;-49
2024/05/05 10:02:51;;;;;;;4.80;2.13;;;29.60;50.60;33.50;99812.00;;;;5457303;26;20002;-49
2024/05/05 10:05:20;;;;;;;4.80;2.50;;;29.50;49.60;32.40;99818.00;;;;5485397;26;19998;-48
2024/05/05 10:07:50;;;;;;;2.53;1.90;;;28.80;50.00;33.40;99809.00;;;;5457215;26;19994;-52
2024/05/05 10:10:22;;;;;;;4.90;2.40;;;28.90;51.30;34.40;99804.00;;;;5457153;26;20006;-52
2024/05/05 10:12:50;;;;;;;3.55;2.17;;;29.60;51.10;35.10;99804.00;;;;5457463;26;20075;-50
2024/05/05 10:15:17;;;;;;;8.63;2.35;;;30.60;49.50;34.80;99808.00;;;;5455898;26;20023;-49
2024/05/05 10:17:44;;;;;;;5.40;2.28;;;30.60;48.00;34.10;99799.00;;;;5455306;26;19997;-55
2024/05/05 10:20:19;;;;;;;6.35;2.15;;;30.40;48.40;31.60;99808.00;;;;5455383;26;19998;-48
2024/05/05 10:22:45;;;;;;;8.65;2.15;;;28.70;47.20;32.70;99794.00;;;;5457565;26;20041;-48
2024/05/05 10:25:12;;;;;;;4.05;1.95;;;28.80;48.60;33.70;99798.00;;;;5456995;26;20001;-49
2024/05/05 10:27:38;;;;;;;6.50;2.30;;;29.40;49.00;33.20;99797.00;;;;5456698;26;20002;-50
2024/05/05 10:30:05;;;;;;;8.40;2.33;;;29.10;49.30;32.90;99796.00;;;;5456354;26;19995;-48
2024/05/05 10:32:32;;;;;;;12.82;2.20;;;29.10;48.20;32.90;99794.00;;;;5455122;26;20027;-51
2024/05/05 10:34:58;;;;;;;3.05;1.95;;;29.10;47.90;33.30;99790.00;;;;5456627;26;19991;-49
2024/05/05 10:37:25;;;;;;;7.38;2.30;;;29.10;47.60;33.90;99789.00;;;;5457837;26;19987;-49
2024/05/05 10:39:52;;;;;;;5.93;2.30;;;30.20;46.40;34.90;99780.00;;;;5457782;26;20352;-49
2024/05/05 10:42:23;;;;;;;7.20;2.08;;;30.80;46.80;36.10;99780.00;;;;5456938;26;20326;-65
2024/05/05 10:44:49;;;;;;;7.63;2.17;;;31.70;47.80;36.10;99774.00;;;;5456869;26;19990;-51
2024/05/05 10:47:16;;;;;;;6.72;2.35;;;32.40;47.10;36.30;99779.00;;;;5455274;26;20006;-51
2024/05/05 10:49:42;;;;;;;9.23;2.55;;;32.60;46.80;36.10;99780.00;;;;5485660;26;20313;-57
2024/05/05 10:52:08;;;;;;;3.28;2.40;;;32.30;47.00;35.30;99777.00;;;;5456637;26;19991;-57